Macuru Arrow — C6YH3 — position and weather

sailwx.info

Track history (hours):
 
Tides and Currents Weather Stations Pressure Air Temp Water Temp Dewpoint Dewpoint Depression Visibility Wind Speed Wind Dir Waves Ship Positions

Macuru Arrow

Last reported at 2014-Aug-27 21:03 UTC. Time now 2014-Aug-28 09:26 UTC.
Position N 50°34' W 005°46'.

Length 225 m; draft 11.3 m.

Type: Cargo ship. MMSI: 311032500.

Date/timePositionNaut miles runAvg speedWind from/ knotsBaromVisibWave heightAir tempDewpointWater temp
2014-Aug-27 21:03N 50°34' W 005°46'612.0
2014-Aug-27 20:33N 50°37' W 005°39'1211.6
2014-Aug-27 19:33N 50°44' W 005°24'9111.2
2014-Aug-27 11:29N 51°22' W 003°12'1112.4
2014-Aug-27 10:33N 51°27' W 002°57'9 8.2
2014-Aug-27 09:31N 51°30' W 002°43'0 0.2
2014-Aug-27 08:31N 51°30' W 002°43'0 0.0
2014-Aug-27 07:31N 51°30' W 002°43'0 0.0
2014-Aug-27 06:31N 51°30' W 002°43'0 0.0
2014-Aug-27 05:31N 51°30' W 002°43'0 0.0
2014-Aug-27 04:31N 51°30' W 002°43'0 0.0
2014-Aug-27 03:31N 51°30' W 002°43'0 0.0
2014-Aug-27 02:31N 51°30' W 002°43'0 0.0
2014-Aug-27 01:31N 51°30' W 002°43'0 0.0
2014-Aug-27 00:31N 51°30' W 002°43'0 0.0
2014-Aug-26 23:31N 51°30' W 002°43'0 0.0
2014-Aug-26 22:31N 51°30' W 002°43'0 0.0
2014-Aug-26 21:31N 51°30' W 002°43'0 0.0
2014-Aug-26 20:31N 51°30' W 002°43'0 0.0
2014-Aug-26 19:31N 51°30' W 002°43'0 0.0
2014-Aug-26 18:31N 51°30' W 002°43'0 0.0
2014-Aug-26 17:31N 51°30' W 002°43'0 0.0
2014-Aug-26 16:31N 51°30' W 002°43'0 0.0
2014-Aug-26 15:31N 51°30' W 002°43'0 0.0
2014-Aug-26 14:31N 51°30' W 002°43'0 0.0
2014-Aug-26 13:31N 51°30' W 002°43'0 0.0
2014-Aug-26 12:31N 51°30' W 002°43'0 0.0
2014-Aug-26 11:31N 51°30' W 002°43'0 0.0
2014-Aug-26 10:31N 51°30' W 002°43'0 0.0
2014-Aug-26 09:31N 51°30' W 002°43'0 0.0
2014-Aug-26 08:31N 51°30' W 002°43'0 0.0
2014-Aug-26 07:31N 51°30' W 002°43'0 0.0
2014-Aug-26 06:31N 51°30' W 002°43'0 0.0
2014-Aug-26 05:31N 51°30' W 002°43'0 0.0
2014-Aug-26 04:31N 51°30' W 002°43'0 0.0
2014-Aug-26 03:31N 51°30' W 002°43'0 0.0
2014-Aug-26 02:31N 51°30' W 002°43'0 0.0
2014-Aug-26 01:31N 51°30' W 002°43'0 0.0
2014-Aug-26 00:31N 51°30' W 002°43'0 0.0
2014-Aug-25 23:31N 51°30' W 002°43'0 0.0
2014-Aug-25 22:31N 51°30' W 002°43'0 0.0
2014-Aug-25 21:31N 51°30' W 002°43'0 0.0
2014-Aug-25 20:31N 51°30' W 002°43'0 0.0
2014-Aug-25 19:31N 51°30' W 002°43'0 0.0
2014-Aug-25 18:31N 51°30' W 002°43'0 0.0
2014-Aug-25 17:31N 51°30' W 002°43'0 0.0
2014-Aug-25 16:31N 51°30' W 002°43'0 0.0
2014-Aug-25 15:31N 51°30' W 002°43'0 0.0
2014-Aug-25 14:31N 51°30' W 002°43'0 0.0
2014-Aug-25 13:31N 51°30' W 002°43'0 0.0
2014-Aug-25 12:31N 51°30' W 002°43'0 0.0
2014-Aug-25 11:31N 51°30' W 002°43'0 0.0
2014-Aug-25 10:31N 51°30' W 002°43'0 0.0
2014-Aug-25 09:31N 51°30' W 002°43'0 0.0
2014-Aug-25 08:31N 51°30' W 002°43'0 0.0
2014-Aug-25 07:31N 51°30' W 002°43'0 0.0
2014-Aug-25 06:31N 51°30' W 002°43'0 0.0
2014-Aug-25 05:31N 51°30' W 002°43'0 0.0
2014-Aug-25 04:31N 51°30' W 002°43'0 0.0
2014-Aug-25 03:31N 51°30' W 002°43'0 0.0
2014-Aug-25 02:31N 51°30' W 002°43'0 0.0
2014-Aug-25 01:31N 51°30' W 002°43'0 0.0
2014-Aug-25 00:31N 51°30' W 002°43'0 0.0
2014-Aug-24 23:31N 51°30' W 002°43'0 0.0
2014-Aug-24 22:31N 51°30' W 002°43'0 0.0
2014-Aug-24 21:31N 51°30' W 002°43'0 0.0
2014-Aug-24 20:31N 51°30' W 002°43'0 0.0
2014-Aug-24 19:33N 51°30' W 002°43'0 0.3
2014-Aug-24 18:33N 51°30' W 002°44'2 1.9
2014-Aug-24 17:33N 51°30' W 002°47'1110.6
2014-Aug-24 16:33N 51°25' W 003°02'1211.5
2014-Aug-24 15:33N 51°21' W 003°19'440 9.5
2014-Aug-22 17:12N 44°01' W 003°27'813.1
2014-Aug-22 16:33N 43°53' W 003°23'1312.8
2014-Aug-22 15:33N 43°41' W 003°16'1312.8
2014-Aug-22 14:33N 43°30' W 003°09'9 9.4
2014-Aug-22 13:33N 43°22' W 003°03'1 0.8
2014-Aug-22 12:32N 43°21' W 003°03'0 0.0
2014-Aug-22 11:32N 43°21' W 003°03'0 0.0
2014-Aug-22 10:32N 43°21' W 003°03'0 0.0
2014-Aug-22 09:32N 43°21' W 003°03'0 0.0
2014-Aug-22 08:32N 43°21' W 003°03'0 0.0
2014-Aug-22 07:32N 43°21' W 003°03'0 0.0
2014-Aug-22 06:32N 43°21' W 003°03'0 0.0
2014-Aug-22 05:32N 43°21' W 003°03'0 0.0
2014-Aug-22 04:32N 43°21' W 003°03'0 0.0
2014-Aug-22 03:32N 43°21' W 003°03'0 0.0
2014-Aug-22 02:32N 43°21' W 003°03'1 1.3
2014-Aug-22 01:33N 43°22' W 003°03'5 5.4
2014-Aug-22 00:33N 43°26' W 003°08'1110.5
2014-Aug-21 23:33N 43°32' W 003°20'1211.5
2014-Aug-21 22:32N 43°35' W 003°36'  
Track history (hours):
 
Tides and Currents Weather Stations Pressure Air Temp Water Temp Dewpoint Dewpoint Depression Visibility Wind Speed Wind Dir Waves Ship Positions

Macuru Arrow

Last reported at 2014-Aug-27 21:03 UTC. Time now 2014-Aug-28 09:26 UTC.
Position N 50°34' W 005°46'.

Length 225 m; draft 11.3 m.

Type: Cargo ship. MMSI: 311032500.

Date/timePositionNaut miles runAvg speedWind from/ knotsBaromVisibWave heightAir tempDewpointWater temp
2014-Aug-27 21:03N 50°34' W 005°46'612.0
2014-Aug-27 20:33N 50°37' W 005°39'1211.6
2014-Aug-27 19:33N 50°44' W 005°24'9111.2
2014-Aug-27 11:29N 51°22' W 003°12'1112.4
2014-Aug-27 10:33N 51°27' W 002°57'9 8.2
2014-Aug-27 09:31N 51°30' W 002°43'0 0.2
2014-Aug-27 08:31N 51°30' W 002°43'0 0.0
2014-Aug-27 07:31N 51°30' W 002°43'0 0.0
2014-Aug-27 06:31N 51°30' W 002°43'0 0.0
2014-Aug-27 05:31N 51°30' W 002°43'0 0.0
2014-Aug-27 04:31N 51°30' W 002°43'0 0.0
2014-Aug-27 03:31N 51°30' W 002°43'0 0.0
2014-Aug-27 02:31N 51°30' W 002°43'0 0.0
2014-Aug-27 01:31N 51°30' W 002°43'0 0.0
2014-Aug-27 00:31N 51°30' W 002°43'0 0.0
2014-Aug-26 23:31N 51°30' W 002°43'0 0.0
2014-Aug-26 22:31N 51°30' W 002°43'0 0.0
2014-Aug-26 21:31N 51°30' W 002°43'0 0.0
2014-Aug-26 20:31N 51°30' W 002°43'0 0.0
2014-Aug-26 19:31N 51°30' W 002°43'0 0.0
2014-Aug-26 18:31N 51°30' W 002°43'0 0.0
2014-Aug-26 17:31N 51°30' W 002°43'0 0.0
2014-Aug-26 16:31N 51°30' W 002°43'0 0.0
2014-Aug-26 15:31N 51°30' W 002°43'0 0.0
2014-Aug-26 14:31N 51°30' W 002°43'0 0.0
2014-Aug-26 13:31N 51°30' W 002°43'0 0.0
2014-Aug-26 12:31N 51°30' W 002°43'0 0.0
2014-Aug-26 11:31N 51°30' W 002°43'0 0.0
2014-Aug-26 10:31N 51°30' W 002°43'0 0.0
2014-Aug-26 09:31N 51°30' W 002°43'0 0.0
2014-Aug-26 08:31N 51°30' W 002°43'0 0.0
2014-Aug-26 07:31N 51°30' W 002°43'0 0.0
2014-Aug-26 06:31N 51°30' W 002°43'0 0.0
2014-Aug-26 05:31N 51°30' W 002°43'0 0.0
2014-Aug-26 04:31N 51°30' W 002°43'0 0.0
2014-Aug-26 03:31N 51°30' W 002°43'0 0.0
2014-Aug-26 02:31N 51°30' W 002°43'0 0.0
2014-Aug-26 01:31N 51°30' W 002°43'0 0.0
2014-Aug-26 00:31N 51°30' W 002°43'0 0.0
2014-Aug-25 23:31N 51°30' W 002°43'0 0.0
2014-Aug-25 22:31N 51°30' W 002°43'0 0.0
2014-Aug-25 21:31N 51°30' W 002°43'0 0.0
2014-Aug-25 20:31N 51°30' W 002°43'0 0.0
2014-Aug-25 19:31N 51°30' W 002°43'0 0.0
2014-Aug-25 18:31N 51°30' W 002°43'0 0.0
2014-Aug-25 17:31N 51°30' W 002°43'0 0.0
2014-Aug-25 16:31N 51°30' W 002°43'0 0.0
2014-Aug-25 15:31N 51°30' W 002°43'0 0.0
2014-Aug-25 14:31N 51°30' W 002°43'0 0.0
2014-Aug-25 13:31N 51°30' W 002°43'0 0.0
2014-Aug-25 12:31N 51°30' W 002°43'0 0.0
2014-Aug-25 11:31N 51°30' W 002°43'0 0.0
2014-Aug-25 10:31N 51°30' W 002°43'0 0.0
2014-Aug-25 09:31N 51°30' W 002°43'0 0.0
2014-Aug-25 08:31N 51°30' W 002°43'0 0.0
2014-Aug-25 07:31N 51°30' W 002°43'0 0.0
2014-Aug-25 06:31N 51°30' W 002°43'0 0.0
2014-Aug-25 05:31N 51°30' W 002°43'0 0.0
2014-Aug-25 04:31N 51°30' W 002°43'0 0.0
2014-Aug-25 03:31N 51°30' W 002°43'0 0.0
2014-Aug-25 02:31N 51°30' W 002°43'0 0.0
2014-Aug-25 01:31N 51°30' W 002°43'0 0.0
2014-Aug-25 00:31N 51°30' W 002°43'0 0.0
2014-Aug-24 23:31N 51°30' W 002°43'0 0.0
2014-Aug-24 22:31N 51°30' W 002°43'0 0.0
2014-Aug-24 21:31N 51°30' W 002°43'0 0.0
2014-Aug-24 20:31N 51°30' W 002°43'0 0.0
2014-Aug-24 19:33N 51°30' W 002°43'0 0.3
2014-Aug-24 18:33N 51°30' W 002°44'2 1.9
2014-Aug-24 17:33N 51°30' W 002°47'1110.6
2014-Aug-24 16:33N 51°25' W 003°02'1211.5
2014-Aug-24 15:33N 51°21' W 003°19'440 9.5
2014-Aug-22 17:12N 44°01' W 003°27'813.1
2014-Aug-22 16:33N 43°53' W 003°23'1312.8
2014-Aug-22 15:33N 43°41' W 003°16'1312.8
2014-Aug-22 14:33N 43°30' W 003°09'9 9.4
2014-Aug-22 13:33N 43°22' W 003°03'1 0.8
2014-Aug-22 12:32N 43°21' W 003°03'0 0.0
2014-Aug-22 11:32N 43°21' W 003°03'0 0.0
2014-Aug-22 10:32N 43°21' W 003°03'0 0.0
2014-Aug-22 09:32N 43°21' W 003°03'0 0.0
2014-Aug-22 08:32N 43°21' W 003°03'0 0.0
2014-Aug-22 07:32N 43°21' W 003°03'0 0.0
2014-Aug-22 06:32N 43°21' W 003°03'0 0.0
2014-Aug-22 05:32N 43°21' W 003°03'0 0.0
2014-Aug-22 04:32N 43°21' W 003°03'0 0.0
2014-Aug-22 03:32N 43°21' W 003°03'0 0.0
2014-Aug-22 02:32N 43°21' W 003°03'1 1.3
2014-Aug-22 01:33N 43°22' W 003°03'5 5.4
2014-Aug-22 00:33N 43°26' W 003°08'1110.5
2014-Aug-21 23:33N 43°32' W 003°20'1211.5
2014-Aug-21 22:32N 43°35' W 003°36'  

Dump ship's entire track history